Time;durP1;ratioP1;P1;durP2;ratioP2;P2;SDS_P1;SDS_P2;PMS_P1;PMS_P2;Temp;Humidity;BMP_temperature;BMP_pressure;BME280_temperature;BME280_humidity;BME280_pressure;Samples;Min_cycle;Max_cycle;Signal;HPM_P1;HPM_P2
2020/12/30 00:01:54;;;;;;;2.45;2.25;;;3.80;99.90;;;;;;475286;250;27733;-72
2020/12/30 00:03:55;;;;;;;4.70;2.60;;;3.90;99.90;;;;;;475366;250;27675;-71
2020/12/30 00:05:56;;;;;;;4.40;2.17;;;3.90;99.90;;;;;;475322;250;27635;-72
2020/12/30 00:07:57;;;;;;;1.98;1.83;;;3.90;99.90;;;;;;475338;250;27551;-72
2020/12/30 00:09:59;;;;;;;2.65;1.80;;;3.90;99.90;;;;;;475305;250;27544;-73
2020/12/30 00:12:00;;;;;;;2.05;1.95;;;4.00;99.90;;;;;;475275;250;27623;-72
2020/12/30 00:14:01;;;;;;;1.85;1.70;;;3.90;99.90;;;;;;475312;250;27550;-73
2020/12/30 00:16:02;;;;;;;2.58;1.62;;;3.90;99.90;;;;;;475342;250;27591;-73
2020/12/30 00:18:04;;;;;;;2.60;1.80;;;3.90;99.90;;;;;;475343;250;28105;-73
2020/12/30 00:20:05;;;;;;;1.70;1.60;;;3.90;99.90;;;;;;475276;250;28071;-72
2020/12/30 00:22:06;;;;;;;2.80;2.15;;;3.90;99.90;;;;;;475312;250;28086;-73
2020/12/30 00:24:07;;;;;;;1.83;1.73;;;3.80;99.90;;;;;;475325;250;27540;-72
2020/12/30 00:26:09;;;;;;;1.70;1.60;;;3.80;99.90;;;;;;475335;250;27554;-71
2020/12/30 00:28:10;;;;;;;1.87;1.77;;;3.80;99.90;;;;;;475349;250;27558;-74
2020/12/30 00:30:11;;;;;;;1.87;1.77;;;3.80;99.90;;;;;;475285;250;27648;-72
2020/12/30 00:32:12;;;;;;;2.35;1.73;;;3.80;99.90;;;;;;475275;250;27547;-72
2020/12/30 00:34:14;;;;;;;1.87;1.77;;;3.80;99.90;;;;;;475393;250;27612;-72
2020/12/30 00:36:15;;;;;;;1.73;1.62;;;3.80;99.90;;;;;;475381;249;27571;-73
2020/12/30 00:38:16;;;;;;;1.90;1.80;;;3.70;99.90;;;;;;475343;250;27522;-71
2020/12/30 00:40:17;;;;;;;1.73;1.62;;;3.70;99.90;;;;;;475416;250;27639;-72
2020/12/30 00:42:19;;;;;;;2.00;1.90;;;3.70;99.90;;;;;;475415;250;27556;-74
2020/12/30 00:44:20;;;;;;;1.80;1.70;;;3.70;99.90;;;;;;475361;250;28046;-72
2020/12/30 00:46:21;;;;;;;3.62;1.52;;;3.70;99.90;;;;;;475444;250;28022;-72
2020/12/30 00:48:22;;;;;;;1.67;1.58;;;3.70;99.90;;;;;;475162;250;28366;-73
2020/12/30 00:50:24;;;;;;;1.90;1.80;;;3.70;99.90;;;;;;475275;250;27566;-72
2020/12/30 00:52:26;;;;;;;2.30;2.20;;;3.70;99.90;;;;;;475338;250;27567;-73
2020/12/30 00:54:26;;;;;;;1.80;1.70;;;3.70;99.90;;;;;;474383;248;27581;-72
2020/12/30 00:56:27;;;;;;;2.15;1.95;;;3.80;99.90;;;;;;473370;249;27550;-73
2020/12/30 00:58:29;;;;;;;2.15;1.92;;;3.80;99.90;;;;;;473359;249;27547;-72
2020/12/30 01:00:30;;;;;;;2.97;2.12;;;3.80;99.90;;;;;;473311;249;27564;-72
2020/12/30 01:02:31;;;;;;;2.10;1.83;;;3.80;99.90;;;;;;473338;249;27586;-72
2020/12/30 01:04:32;;;;;;;3.55;2.00;;;3.70;99.90;;;;;;473379;249;27568;-72
2020/12/30 01:06:34;;;;;;;2.28;2.10;;;3.70;99.90;;;;;;473411;249;28070;-74
2020/12/30 01:08:35;;;;;;;2.40;2.20;;;3.70;99.90;;;;;;473355;249;28104;-74
2020/12/30 01:10:36;;;;;;;2.92;2.20;;;3.70;99.90;;;;;;473322;249;28029;-72
2020/12/30 01:12:37;;;;;;;4.15;2.37;;;3.70;99.90;;;;;;473372;249;27549;-73
2020/12/30 01:14:39;;;;;;;2.92;2.55;;;3.70;99.90;;;;;;473370;249;27615;-72
2020/12/30 01:16:40;;;;;;;5.47;2.28;;;3.70;99.90;;;;;;473357;249;27662;-71
2020/12/30 01:18:41;;;;;;;2.50;2.30;;;3.70;99.90;;;;;;473330;249;27600;-73
2020/12/30 01:20:42;;;;;;;2.10;2.00;;;3.70;99.90;;;;;;473295;249;27558;-73
2020/12/30 01:22:44;;;;;;;3.08;2.25;;;3.70;99.90;;;;;;473343;249;27677;-73
2020/12/30 01:24:45;;;;;;;2.28;2.17;;;3.80;99.90;;;;;;473368;249;27580;-72
2020/12/30 01:26:46;;;;;;;2.50;2.40;;;3.80;99.90;;;;;;473367;249;27519;-72
2020/12/30 01:28:47;;;;;;;4.50;2.40;;;3.90;99.90;;;;;;473341;249;27561;-73
2020/12/30 01:30:49;;;;;;;2.75;2.47;;;3.80;99.90;;;;;;473343;249;27646;-72
2020/12/30 01:32:50;;;;;;;4.22;2.62;;;3.90;99.90;;;;;;473282;249;28081;-72
2020/12/30 01:34:51;;;;;;;2.95;2.40;;;3.90;99.90;;;;;;473365;249;29317;-72
2020/12/30 01:36:52;;;;;;;2.80;2.20;;;3.90;99.90;;;;;;473390;249;27606;-72
2020/12/30 01:38:54;;;;;;;2.50;2.30;;;3.90;99.90;;;;;;473360;249;27613;-72
2020/12/30 01:40:55;;;;;;;3.80;2.47;;;3.80;99.90;;;;;;473310;249;27558;-72
2020/12/30 01:42:56;;;;;;;2.85;2.25;;;3.80;99.90;;;;;;473339;249;27564;-72
2020/12/30 01:44:57;;;;;;;4.00;2.78;;;3.90;99.90;;;;;;473402;249;27675;-73
2020/12/30 01:46:59;;;;;;;2.60;2.40;;;4.00;99.90;;;;;;473484;249;27616;-72
2020/12/30 01:49:00;;;;;;;2.70;2.50;;;3.90;99.90;;;;;;473333;249;27621;-71
2020/12/30 01:51:01;;;;;;;4.07;2.40;;;3.90;99.90;;;;;;473428;249;27569;-72
2020/12/30 01:53:02;;;;;;;3.75;2.78;;;3.90;99.90;;;;;;473503;249;27552;-72
2020/12/30 01:55:04;;;;;;;2.55;2.35;;;4.00;99.90;;;;;;473520;249;28028;-73
2020/12/30 01:57:05;;;;;;;2.30;2.10;;;4.00;99.90;;;;;;473552;249;27968;-72
2020/12/30 01:59:06;;;;;;;3.30;2.62;;;4.00;99.90;;;;;;473553;249;28040;-72
2020/12/30 02:01:07;;;;;;;3.65;2.58;;;4.10;99.90;;;;;;473500;249;27936;-72
2020/12/30 02:03:09;;;;;;;3.37;2.58;;;4.00;99.90;;;;;;473531;249;27521;-72
2020/12/30 02:05:10;;;;;;;2.80;2.33;;;4.00;99.90;;;;;;473526;249;27588;-72
2020/12/30 02:07:11;;;;;;;3.37;2.60;;;4.00;99.90;;;;;;473508;249;27644;-72
2020/12/30 02:09:12;;;;;;;2.40;2.12;;;4.00;99.90;;;;;;473481;249;27565;-72
2020/12/30 02:11:14;;;;;;;5.30;2.60;;;4.00;99.90;;;;;;473356;249;27566;-73
2020/12/30 02:13:15;;;;;;;2.50;2.30;;;4.10;99.90;;;;;;473438;251;27533;-72
2020/12/30 02:15:16;;;;;;;4.30;3.00;;;4.10;99.90;;;;;;473393;249;27611;-77
2020/12/30 02:17:17;;;;;;;4.35;2.20;;;3.90;99.90;;;;;;473387;249;27518;-71
2020/12/30 02:19:19;;;;;;;2.60;2.37;;;4.00;99.90;;;;;;473365;249;28005;-72
2020/12/30 02:21:20;;;;;;;5.80;3.00;;;4.00;99.90;;;;;;473333;249;28107;-72
2020/12/30 02:23:21;;;;;;;2.60;2.40;;;4.00;99.90;;;;;;473294;249;28044;-73
2020/12/30 02:25:22;;;;;;;6.37;2.90;;;4.10;99.90;;;;;;473389;249;28205;-73
2020/12/30 02:27:24;;;;;;;2.83;2.58;;;4.10;99.90;;;;;;473366;249;27542;-72
2020/12/30 02:29:25;;;;;;;3.72;2.90;;;4.00;99.90;;;;;;473346;249;27573;-74
2020/12/30 02:31:26;;;;;;;4.03;2.55;;;4.00;99.90;;;;;;473189;249;27561;-73
2020/12/30 02:33:27;;;;;;;4.82;3.05;;;4.00;99.90;;;;;;473316;249;27549;-73
2020/12/30 02:35:29;;;;;;;2.80;2.60;;;4.10;99.90;;;;;;473367;249;27551;-71
2020/12/30 02:37:30;;;;;;;3.25;2.67;;;4.10;99.90;;;;;;473418;249;27585;-74
2020/12/30 02:39:31;;;;;;;3.17;2.70;;;4.10;99.90;;;;;;473374;249;27675;-73
2020/12/30 02:41:32;;;;;;;2.75;2.50;;;4.00;99.90;;;;;;473326;249;27566;-72
2020/12/30 02:43:34;;;;;;;3.10;2.65;;;4.10;99.90;;;;;;473368;249;28122;-72
2020/12/30 02:45:35;;;;;;;2.78;2.58;;;4.10;99.90;;;;;;473370;249;28025;-72
2020/12/30 02:47:36;;;;;;;3.70;2.50;;;4.10;99.90;;;;;;473385;249;28012;-73
2020/12/30 02:49:37;;;;;;;9.00;3.15;;;4.10;99.90;;;;;;473382;249;27565;-73
2020/12/30 02:51:39;;;;;;;6.25;2.75;;;4.10;99.90;;;;;;473337;249;27580;-72
2020/12/30 02:53:40;;;;;;;2.97;2.70;;;4.10;99.90;;;;;;473368;249;27584;-73
2020/12/30 02:55:41;;;;;;;3.08;2.80;;;4.20;99.90;;;;;;473382;249;27672;-72
2020/12/30 02:57:42;;;;;;;2.58;2.37;;;4.10;99.90;;;;;;473379;249;27656;-73
2020/12/30 02:59:44;;;;;;;3.22;2.80;;;4.10;99.90;;;;;;473380;249;27584;-73
2020/12/30 03:01:45;;;;;;;4.47;2.55;;;4.10;99.90;;;;;;473327;249;27581;-73
2020/12/30 03:03:46;;;;;;;2.37;2.20;;;4.10;99.90;;;;;;473382;249;27548;-72
2020/12/30 03:05:47;;;;;;;3.60;2.70;;;4.20;99.90;;;;;;473414;249;27979;-72
2020/12/30 03:07:49;;;;;;;7.28;2.50;;;4.20;99.90;;;;;;473413;249;28036;-72
2020/12/30 03:09:50;;;;;;;3.75;2.70;;;4.20;99.90;;;;;;473468;249;28174;-72
2020/12/30 03:11:51;;;;;;;5.68;2.92;;;4.20;99.90;;;;;;473496;249;28109;-72
2020/12/30 03:13:52;;;;;;;2.78;2.33;;;4.20;99.90;;;;;;473532;249;27552;-74
2020/12/30 03:15:54;;;;;;;4.32;2.85;;;4.10;99.90;;;;;;473569;249;27514;-72
2020/12/30 03:17:55;;;;;;;2.53;2.33;;;4.10;99.90;;;;;;473429;249;27549;-73
2020/12/30 03:19:56;;;;;;;9.20;3.37;;;4.10;99.90;;;;;;473437;249;27603;-72
2020/12/30 03:21:57;;;;;;;9.52;2.85;;;4.10;99.90;;;;;;473384;249;27554;-72
2020/12/30 03:23:59;;;;;;;3.80;2.60;;;4.10;99.90;;;;;;473354;249;27639;-72
2020/12/30 03:26:00;;;;;;;3.65;2.25;;;4.20;99.90;;;;;;473408;249;27717;-72
2020/12/30 03:28:01;;;;;;;2.45;2.25;;;4.10;99.90;;;;;;473394;249;27651;-72
2020/12/30 03:30:03;;;;;;;4.70;2.80;;;4.10;99.90;;;;;;473372;249;28907;-72
2020/12/30 03:32:04;;;;;;;5.32;2.95;;;4.10;99.90;;;;;;473311;249;28116;-72
2020/12/30 03:34:08;;;;;;;2.22;2.03;;;4.10;99.90;;;;;;473354;249;28536;-72
2020/12/30 03:36:06;;;;;;;3.40;2.58;;;4.10;99.90;;;;;;473271;251;27550;-72
2020/12/30 03:38:08;;;;;;;2.47;2.20;;;4.10;99.90;;;;;;473389;249;27572;-74
2020/12/30 03:40:09;;;;;;;3.62;2.30;;;4.10;99.90;;;;;;473320;249;27569;-72
2020/12/30 03:42:10;;;;;;;4.07;2.40;;;4.10;99.90;;;;;;473370;249;27553;-72
2020/12/30 03:44:11;;;;;;;4.05;2.30;;;4.10;99.90;;;;;;473300;249;27552;-72
2020/12/30 03:46:13;;;;;;;5.30;2.45;;;4.10;99.90;;;;;;473369;249;27644;-72
2020/12/30 03:48:14;;;;;;;7.70;2.70;;;4.10;99.90;;;;;;473357;249;27911;-73
2020/12/30 03:50:15;;;;;;;4.05;2.50;;;4.10;99.90;;;;;;473317;249;27574;-72
2020/12/30 03:52:17;;;;;;;6.40;2.33;;;4.10;99.90;;;;;;473346;249;27558;-72
2020/12/30 03:54:18;;;;;;;4.37;2.20;;;4.10;99.90;;;;;;473363;249;28140;-72
2020/12/30 03:56:19;;;;;;;5.65;2.55;;;4.10;99.90;;;;;;473342;249;28082;-72
2020/12/30 03:58:20;;;;;;;4.47;2.50;;;4.10;99.90;;;;;;473378;249;28043;-72
2020/12/30 04:00:21;;;;;;;6.10;2.33;;;4.10;99.90;;;;;;473291;249;29243;-72
2020/12/30 04:02:23;;;;;;;3.95;2.00;;;4.20;99.90;;;;;;473362;249;27562;-73
2020/12/30 04:04:24;;;;;;;7.45;2.20;;;4.10;99.90;;;;;;473363;249;27683;-73
2020/12/30 04:06:25;;;;;;;4.90;2.10;;;4.20;99.90;;;;;;473335;249;27633;-73
2020/12/30 04:08:26;;;;;;;2.47;2.28;;;4.10;99.90;;;;;;473412;249;27509;-72
2020/12/30 04:10:28;;;;;;;5.12;2.20;;;4.20;99.90;;;;;;473381;249;27689;-72
2020/12/30 04:12:29;;;;;;;2.90;2.10;;;4.20;99.90;;;;;;473347;251;27875;-74
2020/12/30 04:14:30;;;;;;;5.22;3.22;;;4.20;99.90;;;;;;473371;249;27591;-72
2020/12/30 04:16:31;;;;;;;5.50;2.10;;;4.10;99.90;;;;;;473383;249;27572;-73
2020/12/30 04:18:33;;;;;;;6.35;2.40;;;4.20;99.90;;;;;;473377;249;27966;-72
2020/12/30 04:20:34;;;;;;;4.87;2.90;;;4.10;99.90;;;;;;473336;249;28029;-72
2020/12/30 04:22:35;;;;;;;4.15;2.40;;;4.00;99.90;;;;;;473333;249;29141;-73
2020/12/30 04:24:36;;;;;;;7.50;2.50;;;4.00;99.90;;;;;;473350;249;27534;-72
2020/12/30 04:26:38;;;;;;;4.60;2.65;;;4.10;99.90;;;;;;473427;249;27653;-73
2020/12/30 04:28:39;;;;;;;2.97;2.05;;;4.00;99.90;;;;;;473445;249;27516;-72
2020/12/30 04:30:40;;;;;;;6.78;2.50;;;4.10;99.90;;;;;;473448;249;27558;-72
2020/12/30 04:32:41;;;;;;;8.88;2.30;;;4.10;99.90;;;;;;473446;249;27594;-72
2020/12/30 04:34:43;;;;;;;2.85;2.50;;;4.10;99.90;;;;;;473538;249;27522;-72
2020/12/30 04:36:44;;;;;;;5.90;2.55;;;4.10;99.90;;;;;;473535;249;27550;-72
2020/12/30 04:38:45;;;;;;;4.43;2.47;;;4.10;99.90;;;;;;473540;249;27549;-72
2020/12/30 04:40:46;;;;;;;5.15;2.37;;;4.10;99.90;;;;;;473476;249;27997;-72
2020/12/30 04:42:48;;;;;;;5.45;2.80;;;4.10;99.90;;;;;;473423;251;28873;-74
2020/12/30 04:44:49;;;;;;;5.68;2.20;;;4.10;99.90;;;;;;473400;249;28073;-71
2020/12/30 04:46:54;;;;;;;7.40;2.87;;;4.10;99.90;;;;;;473416;249;27559;-73
2020/12/30 04:48:51;;;;;;;2.30;2.10;;;4.10;99.90;;;;;;473121;251;27629;-72
2020/12/30 04:50:53;;;;;;;6.25;2.58;;;4.10;99.90;;;;;;473305;249;27648;-72
2020/12/30 04:52:54;;;;;;;4.07;2.03;;;4.00;99.90;;;;;;473371;249;27561;-72
2020/12/30 04:54:55;;;;;;;2.50;1.87;;;4.10;99.90;;;;;;473360;249;27535;-73
2020/12/30 04:56:57;;;;;;;4.07;3.25;;;4.10;99.90;;;;;;473368;249;27557;-73
2020/12/30 04:58:58;;;;;;;2.40;1.90;;;4.00;99.90;;;;;;473497;248;27562;-73
2020/12/30 05:00:59;;;;;;;4.32;1.83;;;4.10;99.90;;;;;;475088;248;27546;-73
2020/12/30 05:03:00;;;;;;;4.60;2.10;;;4.10;99.90;;;;;;473932;250;28045;-72
2020/12/30 05:05:01;;;;;;;4.50;2.55;;;4.00;99.90;;;;;;474131;249;28058;-73
2020/12/30 05:07:03;;;;;;;3.92;2.20;;;4.00;99.90;;;;;;475137;250;27965;-72
2020/12/30 05:09:04;;;;;;;2.95;2.40;;;4.10;99.90;;;;;;474155;250;27573;-73
2020/12/30 05:11:05;;;;;;;4.45;3.22;;;4.00;99.90;;;;;;473239;249;27556;-73
2020/12/30 05:13:06;;;;;;;4.50;2.10;;;4.00;99.90;;;;;;473245;249;27561;-71
2020/12/30 05:15:08;;;;;;;2.08;1.80;;;3.90;99.90;;;;;;473273;249;27553;-73
2020/12/30 05:17:09;;;;;;;2.50;2.25;;;3.80;99.90;;;;;;473977;249;27606;-72
2020/12/30 05:19:10;;;;;;;3.15;2.15;;;3.90;99.90;;;;;;475248;248;27607;-72
2020/12/30 05:21:11;;;;;;;4.75;2.58;;;3.90;99.90;;;;;;474292;250;27944;-73
2020/12/30 05:23:13;;;;;;;4.55;2.22;;;3.90;99.90;;;;;;473336;249;27561;-71
2020/12/30 05:25:14;;;;;;;6.62;2.00;;;3.90;99.90;;;;;;475159;249;27626;-73
2020/12/30 05:27:15;;;;;;;4.35;1.92;;;3.90;99.90;;;;;;475372;249;28165;-72
2020/12/30 05:29:16;;;;;;;2.95;2.20;;;3.90;99.90;;;;;;474155;250;28018;-73
2020/12/30 05:31:18;;;;;;;3.10;2.08;;;3.90;99.90;;;;;;473331;249;28040;-74
2020/12/30 05:33:19;;;;;;;9.18;2.05;;;3.90;99.90;;;;;;473298;249;27549;-72
2020/12/30 05:35:21;;;;;;;3.72;2.20;;;3.90;99.90;;;;;;473391;249;27681;-73
2020/12/30 05:37:21;;;;;;;3.90;1.80;;;3.90;99.90;;;;;;473958;249;27554;-72
2020/12/30 05:39:23;;;;;;;3.58;2.22;;;3.90;99.90;;;;;;475372;250;27544;-73
2020/12/30 05:41:24;;;;;;;4.60;2.03;;;3.90;99.90;;;;;;475295;250;27619;-72
2020/12/30 05:43:25;;;;;;;5.80;2.20;;;3.90;99.90;;;;;;475361;249;27547;-72
2020/12/30 05:45:26;;;;;;;4.60;2.47;;;3.90;99.90;;;;;;475512;250;27579;-74
2020/12/30 05:47:28;;;;;;;6.97;2.85;;;3.90;99.90;;;;;;475518;250;27506;-72
2020/12/30 05:49:29;;;;;;;5.95;2.30;;;3.90;99.90;;;;;;475264;248;27678;-71
2020/12/30 05:51:30;;;;;;;7.47;2.95;;;3.80;99.90;;;;;;474171;249;28052;-72
2020/12/30 05:53:31;;;;;;;5.57;2.28;;;3.80;99.90;;;;;;474058;249;28236;-72
2020/12/30 05:55:33;;;;;;;3.05;2.37;;;3.70;99.90;;;;;;474097;250;28043;-73
2020/12/30 05:57:34;;;;;;;4.40;2.50;;;3.80;99.90;;;;;;473364;249;27984;-72
2020/12/30 05:59:35;;;;;;;6.78;2.40;;;3.80;99.90;;;;;;473396;249;27545;-73
2020/12/30 06:01:38;;;;;;;3.70;2.42;;;3.80;99.90;;;;;;473528;249;27546;-72
2020/12/30 06:03:38;;;;;;;7.25;3.30;;;3.80;99.90;;;;;;475255;250;27542;-72
2020/12/30 06:05:39;;;;;;;4.60;2.87;;;3.70;99.90;;;;;;475319;250;27596;-73
2020/12/30 06:07:40;;;;;;;4.65;2.90;;;3.70;99.90;;;;;;475382;250;27558;-72
2020/12/30 06:09:41;;;;;;;5.60;2.40;;;3.80;99.90;;;;;;475446;250;27569;-72
2020/12/30 06:11:43;;;;;;;8.50;2.50;;;3.80;99.90;;;;;;475289;249;27983;-73
2020/12/30 06:13:44;;;;;;;3.25;2.12;;;3.80;99.90;;;;;;475374;250;27678;-72
2020/12/30 06:15:45;;;;;;;6.60;2.20;;;3.80;99.90;;;;;;475357;250;28092;-72
2020/12/30 06:17:46;;;;;;;6.97;2.53;;;3.80;99.90;;;;;;475390;250;28082;-72
2020/12/30 06:19:48;;;;;;;5.20;2.65;;;3.70;99.90;;;;;;475023;248;28010;-72
2020/12/30 06:21:49;;;;;;;4.72;2.45;;;3.80;99.90;;;;;;474466;249;27549;-72
2020/12/30 06:23:50;;;;;;;5.10;2.30;;;3.80;99.90;;;;;;475390;250;27545;-73
2020/12/30 06:25:51;;;;;;;6.28;2.50;;;3.80;99.90;;;;;;473629;248;27581;-72
2020/12/30 06:27:53;;;;;;;9.63;2.75;;;3.80;99.90;;;;;;474952;249;27615;-73
2020/12/30 06:29:54;;;;;;;5.70;2.37;;;3.80;99.90;;;;;;474598;250;27549;-72
2020/12/30 06:31:55;;;;;;;4.30;2.40;;;3.90;99.90;;;;;;473237;251;27561;-73
2020/12/30 06:33:56;;;;;;;8.95;2.90;;;3.90;99.90;;;;;;473367;249;27588;-72
2020/12/30 06:35:58;;;;;;;11.43;2.97;;;3.80;99.90;;;;;;473379;249;27651;-72
2020/12/30 06:37:59;;;;;;;6.18;2.53;;;3.90;99.90;;;;;;474244;249;27568;-74
2020/12/30 06:40:00;;;;;;;7.72;2.40;;;3.90;99.90;;;;;;475372;250;28778;-72
2020/12/30 06:42:01;;;;;;;9.38;2.90;;;3.90;99.90;;;;;;475285;249;28044;-72
2020/12/30 06:44:03;;;;;;;10.73;3.17;;;3.90;99.90;;;;;;475333;250;28179;-73
2020/12/30 06:46:04;;;;;;;5.80;2.70;;;3.90;99.90;;;;;;475359;250;27631;-72
2020/12/30 06:48:05;;;;;;;5.35;2.70;;;3.90;99.90;;;;;;475404;250;27568;-72
2020/12/30 06:50:06;;;;;;;6.32;3.15;;;3.90;99.90;;;;;;475359;250;27560;-72
2020/12/30 06:52:08;;;;;;;7.53;2.83;;;3.90;99.90;;;;;;475437;250;27688;-72
2020/12/30 06:54:09;;;;;;;8.40;3.15;;;3.90;99.90;;;;;;475392;248;27571;-72
2020/12/30 06:56:10;;;;;;;9.77;3.83;;;3.90;99.90;;;;;;471140;248;27516;-72
2020/12/30 06:58:11;;;;;;;4.68;2.80;;;3.90;99.90;;;;;;474541;249;27570;-73
2020/12/30 07:00:13;;;;;;;7.20;3.47;;;3.90;99.90;;;;;;473462;249;27526;-71
2020/12/30 07:02:16;;;;;;;7.78;3.15;;;3.90;99.90;;;;;;473514;249;28183;-72
2020/12/30 07:04:15;;;;;;;5.82;3.35;;;3.90;99.90;;;;;;473317;251;28080;-74
2020/12/30 07:06:16;;;;;;;8.95;3.25;;;3.90;99.90;;;;;;473527;249;28092;-72
2020/12/30 07:08:18;;;;;;;11.55;3.30;;;3.90;99.90;;;;;;473508;249;27565;-73
2020/12/30 07:10:19;;;;;;;9.15;3.50;;;3.90;99.90;;;;;;473450;249;27552;-72
2020/12/30 07:12:20;;;;;;;6.20;3.35;;;4.00;99.90;;;;;;473435;249;27551;-72
2020/12/30 07:14:21;;;;;;;3.80;2.92;;;4.00;99.90;;;;;;473388;249;27557;-74
2020/12/30 07:16:23;;;;;;;6.85;3.97;;;4.00;99.90;;;;;;473399;249;27524;-72
2020/12/30 07:18:24;;;;;;;6.18;3.05;;;4.00;99.90;;;;;;473368;249;27664;-72
2020/12/30 07:20:25;;;;;;;7.47;3.45;;;4.00;99.90;;;;;;473338;249;27501;-73
2020/12/30 07:22:26;;;;;;;6.20;3.50;;;4.00;99.90;;;;;;471922;246;27666;-73
2020/12/30 07:24:28;;;;;;;9.73;4.37;;;4.00;99.90;;;;;;468041;254;27459;-74
2020/12/30 07:26:29;;;;;;;6.07;3.08;;;4.00;99.90;;;;;;469001;253;27983;-72
2020/12/30 07:28:30;;;;;;;5.93;3.75;;;4.10;99.90;;;;;;468083;254;28027;-73
2020/12/30 07:30:31;;;;;;;8.13;3.58;;;4.10;99.90;;;;;;472849;248;28116;-74
2020/12/30 07:32:33;;;;;;;7.85;3.42;;;4.10;99.90;;;;;;469024;249;27467;-73
2020/12/30 07:34:34;;;;;;;8.00;3.35;;;4.10;99.90;;;;;;469104;252;27560;-72
2020/12/30 07:36:35;;;;;;;8.48;3.60;;;4.10;99.90;;;;;;473783;250;27434;-73
2020/12/30 07:38:37;;;;;;;6.25;3.30;;;4.10;99.90;;;;;;480109;242;27530;-74
2020/12/30 07:40:38;;;;;;;4.97;3.20;;;4.10;99.90;;;;;;480090;247;27540;-74
2020/12/30 07:42:39;;;;;;;5.43;3.60;;;4.10;99.90;;;;;;479962;246;27619;-73
2020/12/30 07:44:40;;;;;;;9.70;3.85;;;4.10;99.90;;;;;;480348;247;27425;-74
2020/12/30 07:46:42;;;;;;;8.90;3.50;;;4.20;99.90;;;;;;480365;247;27527;-73
2020/12/30 07:48:43;;;;;;;6.78;3.58;;;4.20;99.90;;;;;;480259;247;27969;-76
2020/12/30 07:50:44;;;;;;;5.53;3.42;;;4.20;99.90;;;;;;480317;247;27895;-73
2020/12/30 07:52:45;;;;;;;7.30;2.95;;;4.20;99.90;;;;;;480385;247;27872;-73
2020/12/30 07:54:47;;;;;;;10.65;3.95;;;4.20;99.90;;;;;;480326;247;27527;-72
2020/12/30 07:56:48;;;;;;;6.55;3.55;;;4.20;99.90;;;;;;480357;247;27425;-72
2020/12/30 07:58:49;;;;;;;8.35;3.87;;;4.20;99.90;;;;;;480303;247;27543;-74
2020/12/30 08:00:50;;;;;;;7.15;3.58;;;4.20;99.90;;;;;;481032;245;27513;-73
2020/12/30 08:02:52;;;;;;;4.95;3.40;;;4.20;99.90;;;;;;474688;250;27471;-73
2020/12/30 08:04:53;;;;;;;7.75;3.92;;;4.20;99.90;;;;;;482160;246;27440;-73
2020/12/30 08:06:55;;;;;;;10.52;4.25;;;4.20;99.90;;;;;;475286;249;28007;-75
2020/12/30 08:08:55;;;;;;;10.18;3.90;;;4.20;99.90;;;;;;475276;250;28129;-74
2020/12/30 08:10:57;;;;;;;12.73;4.30;;;4.30;99.90;;;;;;474324;248;27544;-73
2020/12/30 08:12:58;;;;;;;6.87;3.70;;;4.30;99.90;;;;;;474245;249;27562;-72
2020/12/30 08:14:59;;;;;;;8.55;4.18;;;4.30;99.90;;;;;;473789;250;27625;-72
2020/12/30 08:17:01;;;;;;;4.65;3.90;;;4.20;99.90;;;;;;474479;249;27540;-74
2020/12/30 08:19:02;;;;;;;8.68;3.90;;;4.20;99.90;;;;;;475236;250;27948;-73
2020/12/30 08:21:03;;;;;;;8.77;4.20;;;4.30;99.90;;;;;;475281;250;27626;-74
2020/12/30 08:23:04;;;;;;;7.97;4.22;;;4.20;99.90;;;;;;475340;250;27639;-73
2020/12/30 08:25:05;;;;;;;8.20;3.80;;;4.20;99.90;;;;;;475273;250;27979;-71
2020/12/30 08:27:07;;;;;;;6.47;3.97;;;4.20;99.90;;;;;;475322;250;28031;-72
2020/12/30 08:29:08;;;;;;;11.95;4.60;;;4.20;99.90;;;;;;475266;250;28151;-73
2020/12/30 08:31:09;;;;;;;9.70;4.80;;;4.20;99.90;;;;;;473928;248;27543;-73
2020/12/30 08:33:10;;;;;;;7.03;3.85;;;4.30;99.90;;;;;;473253;249;27577;-73
2020/12/30 08:35:12;;;;;;;12.50;4.93;;;4.30;99.90;;;;;;473429;249;27552;-72
2020/12/30 08:37:13;;;;;;;7.95;4.50;;;4.30;99.90;;;;;;474660;249;27551;-74
2020/12/30 08:39:14;;;;;;;5.15;3.60;;;4.30;99.90;;;;;;473716;250;27530;-73
2020/12/30 08:41:15;;;;;;;5.35;3.78;;;4.40;99.90;;;;;;474103;248;27650;-72
2020/12/30 08:43:17;;;;;;;8.07;3.90;;;4.30;99.90;;;;;;473505;249;27557;-75
2020/12/30 08:45:18;;;;;;;6.55;4.30;;;4.30;99.90;;;;;;473548;249;27660;-74
2020/12/30 08:47:19;;;;;;;6.40;4.40;;;4.30;99.90;;;;;;473418;249;28146;-75
2020/12/30 08:49:20;;;;;;;9.07;4.65;;;4.30;99.90;;;;;;473270;249;27970;-74
2020/12/30 08:51:22;;;;;;;8.35;4.57;;;4.30;99.90;;;;;;473275;249;28038;-74
2020/12/30 08:53:23;;;;;;;9.93;4.20;;;4.40;99.90;;;;;;474006;249;27659;-74
2020/12/30 08:55:24;;;;;;;6.25;4.30;;;4.30;99.90;;;;;;475271;250;27524;-72
2020/12/30 08:57:25;;;;;;;10.60;5.00;;;4.30;99.90;;;;;;475303;250;27585;-74
2020/12/30 08:59:27;;;;;;;9.30;4.37;;;4.40;99.90;;;;;;475285;250;27456;-72
2020/12/30 09:01:31;;;;;;;6.25;3.67;;;4.50;99.90;;;;;;475222;250;27648;-73
2020/12/30 09:03:29;;;;;;;5.62;4.20;;;4.50;99.90;;;;;;475064;250;27551;-72
2020/12/30 09:05:30;;;;;;;8.25;4.20;;;4.50;99.90;;;;;;475333;250;28130;-73
2020/12/30 09:07:32;;;;;;;8.93;4.25;;;4.40;99.90;;;;;;475311;250;27954;-73
2020/12/30 09:09:33;;;;;;;8.43;4.10;;;4.50;99.90;;;;;;475095;250;27938;-75
2020/12/30 09:11:34;;;;;;;7.95;4.60;;;4.50;99.90;;;;;;475318;250;27583;-73
2020/12/30 09:13:35;;;;;;;7.80;4.32;;;4.50;99.90;;;;;;475319;250;27568;-73
2020/12/30 09:15:37;;;;;;;14.45;4.53;;;4.50;99.90;;;;;;475875;248;27560;-73
2020/12/30 09:17:38;;;;;;;7.50;3.87;;;4.50;99.90;;;;;;481231;246;27861;-76
2020/12/30 09:19:39;;;;;;;7.57;3.92;;;4.60;99.90;;;;;;485327;244;27559;-75
2020/12/30 09:21:40;;;;;;;6.20;3.95;;;4.60;99.90;;;;;;471661;249;27662;-77
2020/12/30 09:23:42;;;;;;;7.47;4.50;;;4.60;99.90;;;;;;475771;250;28172;-73
2020/12/30 09:25:43;;;;;;;10.13;4.70;;;4.60;99.90;;;;;;482661;245;28766;-74
2020/12/30 09:27:44;;;;;;;7.47;4.15;;;4.60;99.90;;;;;;475318;250;27882;-72
2020/12/30 09:29:45;;;;;;;8.10;4.40;;;4.60;99.90;;;;;;475319;247;27546;-74
2020/12/30 09:31:47;;;;;;;8.77;4.10;;;4.70;99.90;;;;;;475303;250;27548;-73
2020/12/30 09:33:48;;;;;;;13.35;4.93;;;4.70;99.90;;;;;;475301;250;27458;-74
2020/12/30 09:35:49;;;;;;;9.63;5.60;;;4.70;99.90;;;;;;475383;250;27754;-76
2020/12/30 09:37:51;;;;;;;6.43;4.20;;;4.70;99.90;;;;;;475364;250;28103;-73
2020/12/30 09:39:52;;;;;;;10.13;4.75;;;4.80;99.90;;;;;;475296;250;28117;-73
2020/12/30 09:41:53;;;;;;;8.80;4.32;;;4.80;99.90;;;;;;475340;250;27612;-74
2020/12/30 09:43:54;;;;;;;10.35;4.65;;;4.80;99.90;;;;;;475350;250;27664;-73
2020/12/30 09:45:56;;;;;;;7.93;4.30;;;4.80;99.90;;;;;;475377;250;27579;-75
2020/12/30 09:47:57;;;;;;;10.10;4.35;;;4.80;99.90;;;;;;475375;250;27625;-73
2020/12/30 09:49:58;;;;;;;5.87;4.15;;;4.80;99.90;;;;;;475414;250;27561;-74
2020/12/30 09:51:59;;;;;;;8.23;4.18;;;4.80;99.90;;;;;;475423;250;28975;-73
2020/12/30 09:54:01;;;;;;;9.52;4.60;;;4.90;99.90;;;;;;475525;250;27993;-74
2020/12/30 09:56:02;;;;;;;9.25;4.53;;;4.90;99.90;;;;;;475542;250;27647;-74
2020/12/30 09:58:03;;;;;;;6.25;4.25;;;4.90;99.90;;;;;;475465;250;27518;-73
2020/12/30 10:00:04;;;;;;;9.73;4.37;;;4.90;99.90;;;;;;475416;246;27629;-73
2020/12/30 10:02:06;;;;;;;9.90;3.92;;;4.90;99.90;;;;;;475474;250;27537;-74
2020/12/30 10:04:07;;;;;;;11.80;4.90;;;5.00;99.90;;;;;;475473;250;27551;-76
2020/12/30 10:06:08;;;;;;;8.60;4.10;;;5.00;99.90;;;;;;475466;250;27576;-73
2020/12/30 10:08:09;;;;;;;17.70;5.37;;;5.10;99.90;;;;;;475468;250;27984;-73
2020/12/30 10:10:11;;;;;;;8.48;5.05;;;5.10;99.90;;;;;;475270;250;27944;-75
2020/12/30 10:12:12;;;;;;;10.55;5.87;;;5.10;99.90;;;;;;475364;250;27542;-75
2020/12/30 10:14:13;;;;;;;9.43;5.28;;;5.10;99.90;;;;;;475315;250;27545;-74
2020/12/30 10:16:14;;;;;;;11.95;5.40;;;5.10;99.90;;;;;;475327;250;27566;-75
2020/12/30 10:18:16;;;;;;;10.75;5.25;;;5.10;99.90;;;;;;475198;250;27577;-75
2020/12/30 10:20:17;;;;;;;8.52;5.65;;;5.20;99.90;;;;;;475312;250;27665;-75
2020/12/30 10:22:18;;;;;;;6.87;4.40;;;5.30;99.90;;;;;;475313;250;28155;-72
2020/12/30 10:24:19;;;;;;;6.70;5.47;;;5.30;99.90;;;;;;475367;250;28168;-72
2020/12/30 10:26:21;;;;;;;10.68;5.40;;;5.20;99.90;;;;;;475364;250;27562;-73
2020/12/30 10:28:22;;;;;;;7.43;5.50;;;5.20;99.90;;;;;;475320;250;27696;-75
2020/12/30 10:30:23;;;;;;;9.00;5.10;;;5.20;99.90;;;;;;475337;250;27568;-72
2020/12/30 10:32:24;;;;;;;11.77;5.15;;;5.20;99.90;;;;;;475352;250;27565;-75
2020/12/30 10:34:26;;;;;;;5.20;4.35;;;5.20;99.90;;;;;;475368;250;27982;-75
2020/12/30 10:36:32;;;;;;;8.65;4.80;;;5.20;99.90;;;;;;475406;250;28008;-75
2020/12/30 10:38:31;;;;;;;8.38;4.43;;;5.30;99.90;;;;;;475315;250;27553;-74